Hesperides — EANN — position and weather

sailwx.info

Track history (hours):
 
Tides and Currents Weather Stations Pressure Air Temp Water Temp Dewpoint Dewpoint Depression Visibility Wind Speed Wind Dir Waves Ship Positions

Hesperides

Last reported at 2016-Jul-29 17:33 UTC. Time now 2016-Jul-29 17:58 UTC.
Position N 27°59' W 015°23'.

Length 122 m; draft 5.8 m.

Type: Tanker. MMSI: 224462000.

Date/timePositionNaut miles runAvg speedWind from/ knotsBaromVisibWave heightAir tempDewpointWater temp
2016-Jul-29 17:33N 27°59' W 015°23'0 0.0
2016-Jul-29 16:33N 27°59' W 015°23'0 0.0
2016-Jul-29 15:33N 27°59' W 015°23'1 0.7
2016-Jul-29 14:33N 27°58' W 015°22'6 5.8
2016-Jul-29 13:34N 27°53' W 015°19'14 6.9
2016-Jul-29 11:33N 27°43' W 015°30'0 0.0
2016-Jul-29 02:14N 27°43' W 015°30'7 2.0
2016-Jul-28 22:33N 27°46' W 015°22'6 6.0
2016-Jul-28 21:33N 27°51' W 015°19'13 6.1
2016-Jul-28 19:30N 27°43' W 015°30'13 2.6
2016-Jul-28 14:30N 27°40' W 015°44'1 0.4
2016-Jul-28 13:17N 27°40' W 015°44'24 3.6
2016-Jul-28 06:33N 27°49' W 015°19'10 9.6
2016-Jul-28 05:33N 27°58' W 015°17'4 4.3
2016-Jul-28 04:33N 27°58' W 015°22'3 3.3
2016-Jul-28 03:33N 28°02' W 015°20'8 8.1
2016-Jul-28 02:33N 28°08' W 015°25'0 0.0
2016-Jul-27 22:33N 28°08' W 015°25'3 3.1
2016-Jul-27 21:33N 28°07' W 015°22'3 2.7
2016-Jul-27 20:33N 28°06' W 015°19'1 1.1
2016-Jul-27 19:33N 28°05' W 015°19'5 5.2
2016-Jul-27 18:33N 28°10' W 015°20'6 5.7
2016-Jul-27 17:33N 28°04' W 015°19'2 2.3
2016-Jul-27 16:34N 28°02' W 015°19'4 4.3
2016-Jul-27 15:33N 27°58' W 015°21'1 0.2
2016-Jul-27 09:33N 27°59' W 015°23'0 0.0
2016-Jul-27 08:34N 27°59' W 015°23'0 0.0
2016-Jul-27 07:34N 27°59' W 015°23'0 0.0
2016-Jul-27 06:34N 27°59' W 015°23'0 0.0
2016-Jul-27 05:32N 27°59' W 015°23'0 0.0
2016-Jul-27 04:33N 27°59' W 015°23'0 0.0
2016-Jul-27 03:34N 27°59' W 015°23'0 0.0
2016-Jul-27 02:33N 27°59' W 015°23'0 0.0
2016-Jul-27 01:33N 27°59' W 015°23'0 0.0
2016-Jul-27 00:33N 27°59' W 015°23'0 0.0
2016-Jul-26 23:31N 27°59' W 015°23'1 1.1
2016-Jul-26 22:33N 27°59' W 015°21'9 9.2
2016-Jul-26 21:34N 28°07' W 015°17'10 9.5
2016-Jul-26 20:33N 28°16' W 015°18'8 8.5
2016-Jul-26 19:33N 28°19' W 015°27'9 9.2
2016-Jul-26 18:33N 28°19' W 015°37'9 8.9
2016-Jul-26 17:33N 28°21' W 015°47'9 8.9
2016-Jul-26 16:32N 28°23' W 015°57'9 9.2
2016-Jul-26 15:33N 28°26' W 016°07'6 6.4
2016-Jul-26 14:33N 28°29' W 016°13'0 0.0
2016-Jul-26 09:10N 28°29' W 016°13'0 0.0
2016-Jul-25 15:03N 28°29' W 016°13'0 0.0
2016-Jul-25 14:33N 28°29' W 016°13'0 0.0
2016-Jul-25 13:33N 28°29' W 016°13'1 1.0
2016-Jul-25 12:33N 28°29' W 016°14'0 0.1
2016-Jul-25 11:32N 28°29' W 016°14'0 0.0
2016-Jul-25 10:29N 28°29' W 016°14'2 1.1
2016-Jul-25 08:33N 28°27' W 016°16'4 3.5
2016-Jul-25 07:33N 28°24' W 016°14'54 6.6
2016-Jul-24 23:25N 27°40' W 015°39'18 9.6
2016-Jul-24 21:33N 27°49' W 015°22'1010.5
2016-Jul-24 20:33N 27°59' W 015°20'9 9.0
2016-Jul-24 19:33N 28°07' W 015°24'  
2016-Jul-21 10:33N 28°08' W 015°25'7 6.9
2016-Jul-21 09:33N 28°02' W 015°21'4 3.4
2016-Jul-21 08:25N 27°59' W 015°23'0 0.0
2016-Jul-20 13:21N 27°59' W 015°23'0 0.0
2016-Jul-20 12:33N 27°59' W 015°23'1 1.3
2016-Jul-20 11:33N 27°58' W 015°21'3 3.4
2016-Jul-20 10:33N 27°59' W 015°17'2 1.7
2016-Jul-20 09:34N 27°57' W 015°17'4 4.4
2016-Jul-20 08:33N 28°01' W 015°18'4 1.9
2016-Jul-20 06:27N 28°05' W 015°18'8 9.0
2016-Jul-20 05:33N 28°13' W 015°20'  
Track history (hours):
 
Tides and Currents Weather Stations Pressure Air Temp Water Temp Dewpoint Dewpoint Depression Visibility Wind Speed Wind Dir Waves Ship Positions

Hesperides

Last reported at 2016-Jul-29 17:33 UTC. Time now 2016-Jul-29 17:58 UTC.
Position N 27°59' W 015°23'.

Length 122 m; draft 5.8 m.

Type: Tanker. MMSI: 224462000.

Date/timePositionNaut miles runAvg speedWind from/ knotsBaromVisibWave heightAir tempDewpointWater temp
2016-Jul-29 17:33N 27°59' W 015°23'0 0.0
2016-Jul-29 16:33N 27°59' W 015°23'0 0.0
2016-Jul-29 15:33N 27°59' W 015°23'1 0.7
2016-Jul-29 14:33N 27°58' W 015°22'6 5.8
2016-Jul-29 13:34N 27°53' W 015°19'14 6.9
2016-Jul-29 11:33N 27°43' W 015°30'0 0.0
2016-Jul-29 02:14N 27°43' W 015°30'7 2.0
2016-Jul-28 22:33N 27°46' W 015°22'6 6.0
2016-Jul-28 21:33N 27°51' W 015°19'13 6.1
2016-Jul-28 19:30N 27°43' W 015°30'13 2.6
2016-Jul-28 14:30N 27°40' W 015°44'1 0.4
2016-Jul-28 13:17N 27°40' W 015°44'24 3.6
2016-Jul-28 06:33N 27°49' W 015°19'10 9.6
2016-Jul-28 05:33N 27°58' W 015°17'4 4.3
2016-Jul-28 04:33N 27°58' W 015°22'3 3.3
2016-Jul-28 03:33N 28°02' W 015°20'8 8.1
2016-Jul-28 02:33N 28°08' W 015°25'0 0.0
2016-Jul-27 22:33N 28°08' W 015°25'3 3.1
2016-Jul-27 21:33N 28°07' W 015°22'3 2.7
2016-Jul-27 20:33N 28°06' W 015°19'1 1.1
2016-Jul-27 19:33N 28°05' W 015°19'5 5.2
2016-Jul-27 18:33N 28°10' W 015°20'6 5.7
2016-Jul-27 17:33N 28°04' W 015°19'2 2.3
2016-Jul-27 16:34N 28°02' W 015°19'4 4.3
2016-Jul-27 15:33N 27°58' W 015°21'1 0.2
2016-Jul-27 09:33N 27°59' W 015°23'0 0.0
2016-Jul-27 08:34N 27°59' W 015°23'0 0.0
2016-Jul-27 07:34N 27°59' W 015°23'0 0.0
2016-Jul-27 06:34N 27°59' W 015°23'0 0.0
2016-Jul-27 05:32N 27°59' W 015°23'0 0.0
2016-Jul-27 04:33N 27°59' W 015°23'0 0.0
2016-Jul-27 03:34N 27°59' W 015°23'0 0.0
2016-Jul-27 02:33N 27°59' W 015°23'0 0.0
2016-Jul-27 01:33N 27°59' W 015°23'0 0.0
2016-Jul-27 00:33N 27°59' W 015°23'0 0.0
2016-Jul-26 23:31N 27°59' W 015°23'1 1.1
2016-Jul-26 22:33N 27°59' W 015°21'9 9.2
2016-Jul-26 21:34N 28°07' W 015°17'10 9.5
2016-Jul-26 20:33N 28°16' W 015°18'8 8.5
2016-Jul-26 19:33N 28°19' W 015°27'9 9.2
2016-Jul-26 18:33N 28°19' W 015°37'9 8.9
2016-Jul-26 17:33N 28°21' W 015°47'9 8.9
2016-Jul-26 16:32N 28°23' W 015°57'9 9.2
2016-Jul-26 15:33N 28°26' W 016°07'6 6.4
2016-Jul-26 14:33N 28°29' W 016°13'0 0.0
2016-Jul-26 09:10N 28°29' W 016°13'0 0.0
2016-Jul-25 15:03N 28°29' W 016°13'0 0.0
2016-Jul-25 14:33N 28°29' W 016°13'0 0.0
2016-Jul-25 13:33N 28°29' W 016°13'1 1.0
2016-Jul-25 12:33N 28°29' W 016°14'0 0.1
2016-Jul-25 11:32N 28°29' W 016°14'0 0.0
2016-Jul-25 10:29N 28°29' W 016°14'2 1.1
2016-Jul-25 08:33N 28°27' W 016°16'4 3.5
2016-Jul-25 07:33N 28°24' W 016°14'54 6.6
2016-Jul-24 23:25N 27°40' W 015°39'18 9.6
2016-Jul-24 21:33N 27°49' W 015°22'1010.5
2016-Jul-24 20:33N 27°59' W 015°20'9 9.0
2016-Jul-24 19:33N 28°07' W 015°24'  
2016-Jul-21 10:33N 28°08' W 015°25'7 6.9
2016-Jul-21 09:33N 28°02' W 015°21'4 3.4
2016-Jul-21 08:25N 27°59' W 015°23'0 0.0
2016-Jul-20 13:21N 27°59' W 015°23'0 0.0
2016-Jul-20 12:33N 27°59' W 015°23'1 1.3
2016-Jul-20 11:33N 27°58' W 015°21'3 3.4
2016-Jul-20 10:33N 27°59' W 015°17'2 1.7
2016-Jul-20 09:34N 27°57' W 015°17'4 4.4
2016-Jul-20 08:33N 28°01' W 015°18'4 1.9
2016-Jul-20 06:27N 28°05' W 015°18'8 9.0
2016-Jul-20 05:33N 28°13' W 015°20'  

Dump ship's entire track history